createdAt,value
2022-08-03T00:00:47.545Z,15.73
2022-08-03T00:01:47.795Z,15.62
2022-08-03T00:02:47.966Z,15.73
2022-08-03T00:03:47.533Z,15.68
2022-08-03T00:04:47.774Z,15.65
2022-08-03T00:06:08.681Z,15.65
2022-08-03T00:06:47.507Z,15.67
2022-08-03T00:07:51.011Z,15.62
2022-08-03T00:08:47.239Z,15.56
2022-08-03T00:09:47.233Z,15.6
2022-08-03T00:10:47.739Z,15.55
2022-08-03T00:11:47.468Z,15.52
2022-08-03T00:12:47.210Z,15.58
2022-08-03T00:13:47.455Z,15.55
2022-08-03T00:14:47.677Z,15.53
2022-08-03T00:15:47.701Z,15.52
2022-08-03T00:16:47.441Z,15.55
2022-08-03T00:17:58.382Z,15.43
2022-08-03T00:18:47.679Z,15.41
2022-08-03T00:19:47.421Z,15.41
2022-08-03T00:20:47.667Z,15.41
2022-08-03T00:21:47.667Z,15.43
2022-08-03T00:22:47.142Z,15.44
2022-08-03T00:23:57.269Z,15.41
2022-08-03T00:24:47.389Z,15.41
2022-08-03T00:25:47.631Z,15.41
2022-08-03T00:26:47.630Z,15.31
2022-08-03T00:27:50.874Z,15.38
2022-08-03T00:28:47.934Z,15.27
2022-08-03T00:30:04.675Z,15.33
2022-08-03T00:30:49.600Z,15.35
2022-08-03T00:32:05.082Z,15.4
2022-08-03T00:32:49.898Z,15.34
2022-08-03T00:34:06.908Z,15.3
2022-08-03T00:35:17.999Z,15.3
2022-08-03T00:35:57.817Z,15.34
2022-08-03T00:36:57.554Z,15.37
2022-08-03T00:37:57.550Z,15.37
2022-08-03T00:38:57.795Z,15.31
2022-08-03T00:40:05.981Z,15.35
2022-08-03T00:40:57.527Z,15.4
2022-08-03T00:41:57.779Z,15.37
2022-08-03T00:42:57.786Z,15.34
2022-08-03T00:43:57.507Z,15.33
2022-08-03T00:44:57.760Z,15.34
2022-08-03T00:45:57.751Z,15.4
2022-08-03T00:46:57.742Z,15.4
2022-08-03T00:47:57.224Z,15.37
2022-08-03T00:48:58.105Z,15.34
2022-08-03T00:49:57.725Z,15.35
2022-08-03T00:50:58.949Z,15.31
2022-08-03T00:51:57.201Z,15.27
2022-08-03T00:52:57.450Z,15.35
2022-08-03T00:53:57.699Z,15.31
2022-08-03T00:54:57.687Z,15.22
2022-08-03T00:55:57.688Z,15.2
2022-08-03T00:57:04.278Z,15.22
2022-08-03T00:57:57.665Z,15.25
2022-08-03T00:58:57.661Z,15.26
2022-08-03T00:59:57.654Z,15.2
2022-08-03T01:00:57.851Z,15.18
2022-08-03T01:01:57.134Z,15.19
2022-08-03T01:02:57.375Z,15.16
2022-08-03T01:03:57.370Z,15.08
2022-08-03T01:04:57.792Z,15.18
2022-08-03T01:05:57.615Z,15.19
2022-08-03T01:06:57.606Z,15.12
2022-08-03T01:07:57.602Z,15.15
2022-08-03T01:08:57.079Z,15.13
2022-08-03T01:09:57.586Z,15.18
2022-08-03T01:10:57.575Z,15.1
2022-08-03T01:12:06.180Z,15.12
2022-08-03T01:12:57.560Z,15.13
2022-08-03T01:14:20.795Z,15.1
2022-08-03T01:14:57.291Z,15.15
2022-08-03T01:15:57.544Z,15.19
2022-08-03T01:16:57.027Z,15.1
2022-08-03T01:17:57.277Z,15.22
2022-08-03T01:18:57.425Z,15.22
2022-08-03T01:19:57.521Z,15.22
2022-08-03T01:20:57.251Z,15.15
2022-08-03T01:21:57.328Z,15.27
2022-08-03T01:22:57.499Z,15.2
2022-08-03T01:23:57.229Z,15.2
2022-08-03T01:24:57.480Z,15.18
2022-08-03T01:25:59.410Z,15.2
2022-08-03T01:26:57.206Z,15.1
2022-08-03T01:27:57.199Z,15.07
2022-08-03T01:28:57.194Z,15.1
2022-08-03T01:29:57.191Z,15.07
2022-08-03T01:30:57.428Z,15.01
2022-08-03T01:33:06.203Z,15.05
2022-08-03T01:33:16.109Z,14.98
2022-08-03T01:34:19.646Z,15.01
2022-08-03T01:35:16.591Z,15.05
2022-08-03T01:36:16.075Z,15.02
2022-08-03T01:37:16.579Z,15.02
2022-08-03T01:38:16.063Z,14.98
2022-08-03T01:39:16.648Z,14.97
2022-08-03T01:40:16.562Z,14.97
2022-08-03T01:41:16.309Z,15.01
2022-08-03T01:42:16.911Z,14.98
2022-08-03T01:43:54.982Z,14.94
2022-08-03T01:44:39.151Z,14.93
2022-08-03T01:45:39.400Z,14.98
2022-08-03T01:46:39.656Z,14.94
2022-08-03T01:47:39.382Z,14.9
2022-08-03T01:48:39.379Z,14.94
2022-08-03T01:49:39.361Z,14.85
2022-08-03T01:50:39.612Z,14.98
2022-08-03T01:52:08.915Z,14.9
2022-08-03T01:52:39.601Z,14.94
2022-08-03T01:53:39.337Z,14.97
2022-08-03T01:54:39.343Z,14.93
2022-08-03T01:55:39.324Z,14.94
2022-08-03T01:56:39.570Z,14.93
2022-08-03T01:58:10.066Z,14.94
2022-08-03T01:58:39.557Z,14.95
2022-08-03T01:59:39.548Z,14.94
2022-08-03T02:00:39.788Z,15.04
2022-08-03T02:02:38.457Z,14.86
2022-08-03T02:02:50.144Z,14.9
2022-08-03T02:04:04.713Z,14.87
2022-08-03T02:04:49.603Z,14.93
2022-08-03T02:05:57.220Z,14.94
2022-08-03T02:07:09.662Z,14.94
2022-08-03T02:08:09.914Z,14.97
2022-08-03T02:09:09.653Z,14.93
2022-08-03T02:10:09.894Z,14.89
2022-08-03T02:11:09.891Z,14.89
2022-08-03T02:12:09.918Z,14.89
2022-08-03T02:13:09.642Z,14.87
2022-08-03T02:14:09.355Z,14.9
2022-08-03T02:15:09.891Z,14.8
2022-08-03T02:16:09.850Z,14.87
2022-08-03T02:17:09.838Z,14.87
2022-08-03T02:18:09.840Z,14.86
2022-08-03T02:19:09.576Z,14.82
2022-08-03T02:20:09.583Z,14.82
2022-08-03T02:22:01.147Z,14.85
2022-08-03T02:22:12.786Z,14.85
2022-08-03T02:23:12.761Z,14.86
2022-08-03T02:24:13.002Z,14.74
2022-08-03T02:25:12.744Z,14.87
2022-08-03T02:26:12.737Z,14.79
2022-08-03T02:27:13.037Z,14.79
2022-08-03T02:28:12.977Z,14.79
2022-08-03T02:29:14.910Z,14.75
2022-08-03T02:30:12.707Z,14.8
2022-08-03T02:31:12.697Z,14.8
2022-08-03T02:32:12.767Z,14.8
2022-08-03T02:33:13.353Z,14.71
2022-08-03T02:34:12.674Z,14.67
2022-08-03T02:35:12.666Z,14.7
2022-08-03T02:36:12.662Z,14.69
2022-08-03T02:37:12.903Z,14.7
2022-08-03T02:38:12.647Z,14.7
2022-08-03T02:39:12.897Z,14.79
2022-08-03T02:40:12.628Z,14.75
2022-08-03T02:41:12.888Z,14.75
2022-08-03T02:42:15.403Z,14.77
2022-08-03T02:43:12.603Z,14.69
2022-08-03T02:44:12.854Z,14.61
2022-08-03T02:45:16.008Z,14.66
2022-08-03T02:46:12.832Z,14.61
2022-08-03T02:47:12.825Z,14.63
2022-08-03T02:48:12.822Z,14.66
2022-08-03T02:49:55.790Z,14.66
2022-08-03T02:50:12.655Z,14.63
2022-08-03T02:51:12.801Z,14.63
2022-08-03T02:52:19.247Z,14.49
2022-08-03T02:53:12.786Z,14.53
2022-08-03T02:54:12.266Z,14.6
2022-08-03T02:55:12.768Z,14.48
2022-08-03T02:56:12.504Z,14.49
2022-08-03T02:57:12.499Z,14.56
2022-08-03T02:58:12.745Z,14.46
2022-08-03T02:59:12.480Z,14.52
2022-08-03T03:00:12.475Z,14.49
2022-08-03T03:01:12.657Z,14.44
2022-08-03T03:02:12.765Z,14.39
2022-08-03T03:03:14.873Z,14.46
2022-08-03T03:04:14.992Z,14.45
2022-08-03T03:06:01.910Z,14.33
2022-08-03T03:06:17.395Z,14.39
2022-08-03T03:07:17.914Z,14.36
2022-08-03T03:08:30.519Z,14.41
2022-08-03T03:09:17.734Z,14.36
2022-08-03T03:10:17.732Z,14.3
2022-08-03T03:11:17.721Z,14.42
2022-08-03T03:12:18.433Z,14.3
2022-08-03T03:13:17.705Z,14.41
2022-08-03T03:14:19.502Z,14.33
2022-08-03T03:15:17.686Z,14.28
2022-08-03T03:16:17.423Z,14.3
2022-08-03T03:17:17.415Z,14.31
2022-08-03T03:18:23.150Z,14.31
2022-08-03T03:19:17.146Z,14.28
2022-08-03T03:20:30.484Z,14.28
2022-08-03T03:21:20.311Z,14.31
2022-08-03T03:22:18.399Z,14.3
2022-08-03T03:23:17.370Z,14.28
2022-08-03T03:24:18.037Z,14.26
2022-08-03T03:25:18.283Z,14.27
2022-08-03T03:26:18.285Z,14.24
2022-08-03T03:27:23.099Z,14.28
2022-08-03T03:28:18.264Z,14.28
2022-08-03T03:29:17.748Z,14.3
2022-08-03T03:30:17.988Z,14.28
2022-08-03T03:31:18.239Z,14.28
2022-08-03T03:32:18.870Z,14.2
2022-08-03T03:49:56.860Z,14.12
2022-08-03T03:50:54.967Z,14.19
2022-08-03T03:51:54.703Z,14.2
2022-08-03T03:52:54.942Z,14.15
2022-08-03T03:53:54.933Z,14.11
2022-08-03T03:55:00.948Z,14.09
2022-08-03T03:56:06.735Z,14.12
2022-08-03T03:56:54.389Z,14.09
2022-08-03T03:57:54.638Z,14.06
2022-08-03T03:58:54.635Z,14.12
2022-08-03T03:59:54.620Z,14.08
2022-08-03T04:00:55.134Z,14.08
2022-08-03T04:02:03.870Z,14.09
2022-08-03T04:02:54.591Z,14.12
2022-08-03T04:03:54.586Z,14.09
2022-08-03T04:04:54.569Z,14.08
2022-08-03T04:05:54.307Z,14.09
2022-08-03T04:06:54.814Z,14.15
2022-08-03T04:07:54.546Z,14.08
2022-08-03T04:08:54.793Z,14.15
2022-08-03T04:09:54.784Z,14.19
2022-08-03T04:10:54.523Z,14.12
2022-08-03T04:11:54.778Z,14.19
2022-08-03T04:12:55.503Z,14.09
2022-08-03T04:13:54.756Z,14.19
2022-08-03T04:14:54.742Z,14.28
2022-08-03T04:15:54.482Z,14.19
2022-08-03T04:16:54.727Z,14.26
2022-08-03T04:17:54.721Z,14.24
2022-08-03T04:18:54.706Z,14.27
2022-08-03T04:19:54.704Z,14.26
2022-08-03T04:20:54.439Z,14.3
2022-08-03T04:21:56.863Z,14.24
2022-08-03T04:22:54.418Z,14.28
2022-08-03T04:23:54.415Z,14.27
2022-08-03T04:24:54.404Z,14.3
2022-08-03T04:25:54.660Z,14.34
2022-08-03T04:26:57.678Z,14.3
2022-08-03T04:28:34.595Z,14.36
2022-08-03T04:28:54.372Z,14.38
2022-08-03T04:29:54.364Z,14.44
2022-08-03T04:30:54.358Z,14.49
2022-08-03T04:31:54.346Z,14.52
2022-08-03T04:32:54.684Z,14.6
2022-08-03T04:33:54.590Z,14.46
2022-08-03T04:34:54.582Z,14.57
2022-08-03T04:36:07.345Z,14.49
2022-08-03T04:36:54.568Z,14.44
2022-08-03T04:37:54.046Z,14.48
2022-08-03T04:38:54.299Z,14.56
2022-08-03T04:39:54.289Z,14.6
2022-08-03T04:40:54.539Z,14.61
2022-08-03T04:42:12.445Z,14.7
2022-08-03T04:42:54.517Z,14.69
2022-08-03T04:43:54.515Z,14.7
2022-08-03T04:44:57.693Z,14.7
2022-08-03T04:45:54.498Z,14.71
2022-08-03T04:46:57.646Z,14.82
2022-08-03T04:47:54.481Z,14.79
2022-08-03T04:48:54.698Z,14.86
2022-08-03T04:49:54.470Z,14.8
2022-08-03T04:50:54.209Z,14.86
2022-08-03T04:51:54.453Z,14.93
2022-08-03T04:52:54.445Z,14.98
2022-08-03T04:53:54.994Z,14.93
2022-08-03T04:54:55.196Z,15.05
2022-08-03T04:55:54.168Z,14.98
2022-08-03T04:56:54.160Z,15
2022-08-03T04:57:54.154Z,15.04
2022-08-03T04:58:54.144Z,15.07
2022-08-03T05:00:01.224Z,15.04
2022-08-03T05:00:54.137Z,15.07
2022-08-03T05:01:54.457Z,15.12
2022-08-03T05:02:54.121Z,15.08
2022-08-03T05:03:54.358Z,15.26
2022-08-03T05:04:54.103Z,15.25
2022-08-03T05:06:10.077Z,15.2
2022-08-03T05:07:00.824Z,15.25
2022-08-03T05:07:55.243Z,15.38
2022-08-03T05:08:55.704Z,15.3
2022-08-03T05:10:05.209Z,15.41
2022-08-03T05:10:54.320Z,15.34
2022-08-03T05:11:54.053Z,15.34
2022-08-03T05:12:54.300Z,15.41
2022-08-03T05:13:54.291Z,15.45
2022-08-03T05:14:54.286Z,15.38
2022-08-03T05:15:54.278Z,15.52
2022-08-03T05:16:56.131Z,15.51
2022-08-03T05:17:53.770Z,15.55
2022-08-03T05:18:54.261Z,15.52
2022-08-03T05:19:54.027Z,15.55
2022-08-03T05:20:54.246Z,15.7
2022-08-03T05:21:57.353Z,15.71
2022-08-03T05:22:53.980Z,15.68
2022-08-03T05:23:53.966Z,15.75
2022-08-03T05:24:53.970Z,15.75
2022-08-03T05:25:54.715Z,15.88
2022-08-03T05:26:53.957Z,15.88
2022-08-03T05:27:54.194Z,15.88
2022-08-03T05:28:55.935Z,15.84
2022-08-03T05:29:54.031Z,15.99
2022-08-03T05:30:54.177Z,16.06
2022-08-03T05:31:53.655Z,16.04
2022-08-03T05:32:54.174Z,16.11
2022-08-03T05:33:54.199Z,16.14
2022-08-03T05:34:53.897Z,16.18
2022-08-03T05:36:07.636Z,16.17
2022-08-03T05:36:53.624Z,16.3
2022-08-03T05:37:59.494Z,16.33
2022-08-03T05:38:53.876Z,16.22
2022-08-03T05:39:54.186Z,16.3
2022-08-03T05:41:39.644Z,16.26
2022-08-03T05:41:53.849Z,16.33
2022-08-03T05:42:53.852Z,16.4
2022-08-03T05:43:54.045Z,16.37
2022-08-03T05:44:54.091Z,16.42
2022-08-03T05:46:17.190Z,16.55
2022-08-03T05:46:53.822Z,16.57
2022-08-03T05:47:54.069Z,16.65
2022-08-03T05:48:54.111Z,16.72
2022-08-03T05:49:54.055Z,16.72
2022-08-03T05:50:53.786Z,16.77
2022-08-03T05:52:17.686Z,16.85
2022-08-03T05:52:54.171Z,16.9
2022-08-03T05:53:54.033Z,16.91
2022-08-03T05:55:01.807Z,17.05
2022-08-03T05:56:16.512Z,17.03
2022-08-03T05:56:53.755Z,17.06
2022-08-03T05:57:57.582Z,17.13
2022-08-03T05:58:53.747Z,17.15
2022-08-03T06:00:03.192Z,17.15
2022-08-03T06:00:53.724Z,17.17
2022-08-03T06:01:53.885Z,17.27
2022-08-03T06:02:53.972Z,17.25
2022-08-03T06:03:53.969Z,17.36
2022-08-03T06:04:53.957Z,17.35
2022-08-03T06:06:05.083Z,17.38
2022-08-03T06:06:53.961Z,17.46
2022-08-03T06:07:53.688Z,17.49
2022-08-03T06:08:53.680Z,17.54
2022-08-03T06:10:42.484Z,17.55
2022-08-03T06:10:53.675Z,17.57
2022-08-03T06:11:53.917Z,17.57
2022-08-03T06:12:55.731Z,17.68
2022-08-03T06:13:53.914Z,17.65
2022-08-03T06:14:53.905Z,17.76
2022-08-03T06:15:53.657Z,17.8
2022-08-03T06:16:53.889Z,17.83
2022-08-03T06:17:53.639Z,17.92
2022-08-03T06:18:53.875Z,18.01
2022-08-03T06:19:54.429Z,17.99
2022-08-03T06:20:55.008Z,18.05
2022-08-03T06:21:55.739Z,18.1
2022-08-03T06:23:03.767Z,18.17
2022-08-03T06:23:59.627Z,18.2
2022-08-03T06:24:59.924Z,18.26
2022-08-03T06:25:53.589Z,18.21
2022-08-03T06:26:53.836Z,18.34
2022-08-03T06:27:53.830Z,18.32
2022-08-03T06:28:58.040Z,18.36
2022-08-03T06:29:53.567Z,18.39
2022-08-03T06:30:54.554Z,18.39
2022-08-03T06:31:53.580Z,18.51
2022-08-03T06:32:56.732Z,18.56
2022-08-03T06:34:38.912Z,18.54
2022-08-03T06:34:53.542Z,18.53
2022-08-03T06:35:53.536Z,18.59
2022-08-03T06:37:01.491Z,18.65
2022-08-03T06:37:53.545Z,18.59
2022-08-03T06:38:53.520Z,18.72
2022-08-03T06:39:53.671Z,18.68
2022-08-03T06:40:55.198Z,18.82
2022-08-03T06:41:53.518Z,18.96
2022-08-03T06:42:55.127Z,18.97
2022-08-03T06:44:08.739Z,19.05
2022-08-03T06:44:53.496Z,19.09
2022-08-03T06:45:53.746Z,19.28
2022-08-03T06:46:53.501Z,19.4
2022-08-03T06:47:53.478Z,19.55
2022-08-03T06:48:53.521Z,19.63
2022-08-03T06:50:26.630Z,20.04
2022-08-03T06:50:53.470Z,20.15
2022-08-03T06:52:09.736Z,20.72
2022-08-03T06:52:53.460Z,20.88
2022-08-03T06:53:53.454Z,21.3
2022-08-03T06:54:53.452Z,21.71
2022-08-03T06:55:59.058Z,22.67
2022-08-03T06:56:53.707Z,23.72
2022-08-03T06:57:53.440Z,25.04
2022-08-03T06:58:53.442Z,26.37
2022-08-03T07:00:15.362Z,27.98
2022-08-03T07:00:53.436Z,28.57
2022-08-03T07:01:53.909Z,29.4
2022-08-03T07:03:00.433Z,30.16
2022-08-03T07:03:57.354Z,30.86
2022-08-03T07:04:53.439Z,31.41
2022-08-03T07:05:53.429Z,32.03
2022-08-03T07:06:53.431Z,32.39
2022-08-03T07:07:53.686Z,32.76
2022-08-03T07:09:01.365Z,33.13
2022-08-03T07:10:04.341Z,33.73
2022-08-03T07:10:53.686Z,33.96
2022-08-03T07:11:53.437Z,34.22
2022-08-03T07:13:01.300Z,34.66
2022-08-03T07:13:53.694Z,34.86
2022-08-03T07:14:56.646Z,34.9
2022-08-03T07:16:00.916Z,35.06
2022-08-03T07:16:53.708Z,35.34
2022-08-03T07:17:53.707Z,35.47
2022-08-03T07:18:53.453Z,35.64
2022-08-03T07:19:53.470Z,35.86
2022-08-03T07:20:53.720Z,35.84
2022-08-03T07:21:56.050Z,35.89
2022-08-03T07:22:53.224Z,36.12
2022-08-03T07:23:53.480Z,36.21
2022-08-03T07:24:53.491Z,36.49
2022-08-03T07:25:53.749Z,36.58
2022-08-03T07:26:53.758Z,36.74
2022-08-03T07:27:58.666Z,36.86
2022-08-03T07:28:53.507Z,36.99
2022-08-03T07:29:53.261Z,37.18
2022-08-03T07:30:53.518Z,37.29
2022-08-03T07:31:53.780Z,37.41
2022-08-03T07:32:55.243Z,37.44
2022-08-03T07:33:53.804Z,37.49
2022-08-03T07:34:57.055Z,37.44
2022-08-03T07:35:53.561Z,37.45
2022-08-03T07:36:53.567Z,37.65
2022-08-03T07:37:59.651Z,37.87
2022-08-03T07:38:53.580Z,37.74
2022-08-03T07:39:53.845Z,37.74
2022-08-03T07:40:53.596Z,37.79
2022-08-03T07:41:53.884Z,37.9
2022-08-03T07:42:58.269Z,37.94
2022-08-03T07:43:53.381Z,38.18
2022-08-03T07:44:53.886Z,38.3
2022-08-03T07:45:53.645Z,38.47
2022-08-03T07:46:54.094Z,38.47
2022-08-03T07:47:58.607Z,38.47
2022-08-03T07:48:53.715Z,38.25
2022-08-03T07:49:53.945Z,38.22
2022-08-03T07:50:53.690Z,38.36
2022-08-03T07:51:53.951Z,38.47
2022-08-03T07:52:53.782Z,38.52
2022-08-03T07:53:57.455Z,38.5
2022-08-03T07:54:53.727Z,38.3
2022-08-03T07:55:53.988Z,38.28
2022-08-03T07:56:54.005Z,38.42
2022-08-03T07:57:53.754Z,38.43
2022-08-03T07:58:53.754Z,38.44
2022-08-03T08:00:06.542Z,38.35
2022-08-03T08:00:53.975Z,38.13
2022-08-03T08:01:53.970Z,37.98
2022-08-03T08:02:53.790Z,37.76
2022-08-03T08:03:57.304Z,37.29
2022-08-03T08:04:53.805Z,36.81
2022-08-03T08:05:53.811Z,36.22
2022-08-03T08:06:53.822Z,35.45
2022-08-03T08:07:56.379Z,34.81
2022-08-03T08:08:54.097Z,34.14
2022-08-03T08:09:54.090Z,33.63
2022-08-03T08:11:03.410Z,32.9
2022-08-03T08:11:54.257Z,32.54
2022-08-03T08:12:54.265Z,32.15
2022-08-03T08:13:54.007Z,31.71
2022-08-03T08:14:53.750Z,31.43
2022-08-03T08:15:55.166Z,30.96
2022-08-03T08:16:53.759Z,30.6
2022-08-03T08:17:54.283Z,30.34
2022-08-03T08:18:54.288Z,30.14
2022-08-03T08:19:57.882Z,29.89
2022-08-03T08:20:54.242Z,29.72
2022-08-03T08:22:08.066Z,29.6
2022-08-03T08:22:55.814Z,29.4
2022-08-03T08:24:02.379Z,29.43
2022-08-03T08:24:57.697Z,29.35
2022-08-03T08:25:54.066Z,29.29
2022-08-03T08:26:54.066Z,29.13
2022-08-03T08:28:37.245Z,29.08
2022-08-03T08:28:53.826Z,29.05
2022-08-03T08:30:12.359Z,28.94
2022-08-03T08:30:53.854Z,28.95
2022-08-03T08:31:53.844Z,28.95
2022-08-03T08:32:54.099Z,28.91
2022-08-03T08:34:09.706Z,28.88
2022-08-03T08:34:54.507Z,28.88
2022-08-03T08:35:54.388Z,28.78
2022-08-03T08:36:54.113Z,28.8
2022-08-03T08:37:55.859Z,28.68
2022-08-03T08:38:54.130Z,28.79
2022-08-03T08:39:54.136Z,28.75
2022-08-03T08:40:53.880Z,28.76
2022-08-03T08:41:57.984Z,28.68
2022-08-03T08:43:03.474Z,28.76
2022-08-03T08:43:58.192Z,28.78
2022-08-03T08:44:53.897Z,28.76
2022-08-03T08:45:54.169Z,28.7
2022-08-03T08:46:54.154Z,28.68
2022-08-03T08:48:03.483Z,28.78
2022-08-03T08:48:54.052Z,28.82
2022-08-03T08:50:30.537Z,28.9
2022-08-03T08:50:53.915Z,28.91
2022-08-03T08:52:05.051Z,28.83
2022-08-03T08:52:54.175Z,28.8
2022-08-03T08:53:54.440Z,28.67
2022-08-03T08:54:55.260Z,28.68
2022-08-03T08:56:04.224Z,28.55
2022-08-03T08:56:54.191Z,28.64
2022-08-03T08:57:54.453Z,28.7
2022-08-03T08:58:54.626Z,28.67
2022-08-03T08:59:59.835Z,28.82
2022-08-03T09:00:54.169Z,28.8
2022-08-03T09:01:54.216Z,28.91
2022-08-03T09:02:54.470Z,28.92
2022-08-03T09:03:54.231Z,28.94
2022-08-03T09:04:54.221Z,29.05
2022-08-03T09:06:01.882Z,29.03
2022-08-03T09:07:22.926Z,28.91
2022-08-03T09:07:54.493Z,28.86
2022-08-03T09:08:54.242Z,28.91
2022-08-03T09:10:16.303Z,28.95
2022-08-03T09:10:54.494Z,28.91
2022-08-03T09:12:41.790Z,28.95
2022-08-03T09:12:54.509Z,29.02
2022-08-03T09:13:54.252Z,29.01
2022-08-03T09:15:19.159Z,29.01
2022-08-03T09:16:06.105Z,28.98
2022-08-03T09:16:54.515Z,28.97
2022-08-03T09:17:55.688Z,29.06
2022-08-03T09:18:54.015Z,29.06
2022-08-03T09:20:08.075Z,29.1
2022-08-03T09:20:54.530Z,29.06
2022-08-03T09:21:54.280Z,28.98
2022-08-03T09:22:54.532Z,29.11
2022-08-03T09:24:16.658Z,29.06
2022-08-03T09:25:27.366Z,29.23
2022-08-03T09:25:56.253Z,29.17
2022-08-03T09:26:58.507Z,29.24
2022-08-03T09:27:56.768Z,29.24
2022-08-03T09:29:15.558Z,29.3
2022-08-03T09:29:56.264Z,29.26
2022-08-03T09:30:56.792Z,29.18
2022-08-03T09:31:56.531Z,29.14
2022-08-03T09:32:57.735Z,29.05
2022-08-03T09:33:56.280Z,29.11
2022-08-03T09:35:01.341Z,29.14
2022-08-03T09:36:00.377Z,29.28
2022-08-03T09:36:56.551Z,29.23
2022-08-03T09:38:18.196Z,29.33
2022-08-03T09:38:56.800Z,29.39
2022-08-03T09:39:57.301Z,29.45
2022-08-03T09:41:03.110Z,29.33
2022-08-03T09:41:56.556Z,29.32
2022-08-03T09:42:56.812Z,29.33
2022-08-03T09:43:56.306Z,29.38
2022-08-03T09:44:56.615Z,29.47
2022-08-03T09:45:56.567Z,29.48
2022-08-03T09:46:57.091Z,29.57
2022-08-03T09:47:56.323Z,29.66
2022-08-03T09:48:56.942Z,29.65
2022-08-03T09:49:56.580Z,29.72
2022-08-03T09:52:30.189Z,29.76
2022-08-03T09:52:59.557Z,29.76
2022-08-03T09:54:05.609Z,29.69
2022-08-03T09:54:59.824Z,29.7
2022-08-03T09:56:39.817Z,29.63
2022-08-03T09:57:07.591Z,29.63
2022-08-03T09:58:07.593Z,29.57
2022-08-03T09:59:07.333Z,29.45
2022-08-03T10:00:12.829Z,29.42
2022-08-03T10:01:07.988Z,29.47
2022-08-03T10:02:07.349Z,29.58
2022-08-03T10:03:07.353Z,29.63
2022-08-03T10:04:09.792Z,29.75
2022-08-03T10:05:07.362Z,29.81
2022-08-03T10:06:07.879Z,29.72
2022-08-03T10:07:07.386Z,29.66
2022-08-03T10:08:07.874Z,29.81
2022-08-03T10:09:07.874Z,29.81
2022-08-03T10:10:36.818Z,29.87
2022-08-03T10:11:07.636Z,29.95
2022-08-03T10:12:07.632Z,30
2022-08-03T10:13:07.635Z,30.1
2022-08-03T10:14:07.891Z,30.13
2022-08-03T10:15:07.716Z,30.1
2022-08-03T10:16:33.953Z,30.07
2022-08-03T10:17:37.334Z,30.13
2022-08-03T10:18:33.705Z,30.18
2022-08-03T10:19:33.959Z,30.18
2022-08-03T10:20:33.964Z,30.21
2022-08-03T10:21:33.979Z,30.16
2022-08-03T10:22:34.230Z,30.06
2022-08-03T10:23:38.049Z,30.04
2022-08-03T10:24:33.982Z,29.97
2022-08-03T10:25:38.254Z,29.89
2022-08-03T10:26:33.729Z,29.84
2022-08-03T10:27:33.743Z,29.81
2022-08-03T10:28:33.989Z,29.84
2022-08-03T10:29:33.991Z,29.87
2022-08-03T10:30:34.573Z,29.82
2022-08-03T10:31:34.283Z,29.92
2022-08-03T10:32:34.006Z,29.85
2022-08-03T10:33:57.040Z,30.04
2022-08-03T10:34:34.266Z,30.03
2022-08-03T10:35:34.015Z,29.98
2022-08-03T10:36:35.363Z,30.07
2022-08-03T10:37:34.282Z,30.03
2022-08-03T10:38:34.287Z,30.07
2022-08-03T10:39:34.311Z,30
2022-08-03T10:41:03.764Z,29.73
2022-08-03T10:41:34.051Z,29.76
2022-08-03T10:42:34.046Z,29.77
2022-08-03T10:43:33.791Z,29.73
2022-08-03T10:44:33.796Z,29.88
2022-08-03T10:45:34.308Z,29.92
2022-08-03T10:46:34.062Z,29.87
2022-08-03T10:47:33.969Z,29.97
2022-08-03T10:48:34.474Z,30.04
2022-08-03T10:49:39.901Z,30.16
2022-08-03T10:50:34.479Z,30.24
2022-08-03T10:51:34.338Z,30.14
2022-08-03T10:52:47.624Z,30.26
2022-08-03T10:53:34.234Z,30.34
2022-08-03T10:54:34.815Z,30.37
2022-08-03T10:55:36.471Z,30.42
2022-08-03T10:56:55.552Z,30.39
2022-08-03T10:57:38.106Z,30.51
2022-08-03T10:58:35.713Z,30.51
2022-08-03T10:59:34.265Z,30.57
2022-08-03T11:00:34.393Z,30.59
2022-08-03T11:02:04.099Z,30.59
2022-08-03T11:02:34.277Z,30.69
2022-08-03T11:03:34.528Z,30.71
2022-08-03T11:04:34.788Z,30.7
2022-08-03T11:05:34.287Z,30.7
2022-08-03T11:06:42.054Z,30.69
2022-08-03T11:07:34.548Z,30.75
2022-08-03T11:08:34.552Z,30.73
2022-08-03T11:09:34.039Z,30.71
2022-08-03T11:10:34.042Z,30.78
2022-08-03T11:11:34.561Z,30.71
2022-08-03T11:12:35.530Z,30.78
2022-08-03T11:13:34.232Z,30.78
2022-08-03T11:14:35.011Z,30.78
2022-08-03T11:15:34.345Z,30.77
2022-08-03T11:16:34.581Z,30.69
2022-08-03T11:17:46.036Z,30.75
2022-08-03T11:18:34.078Z,30.73
2022-08-03T11:19:34.596Z,30.7
2022-08-03T11:20:34.087Z,30.7
2022-08-03T11:21:35.094Z,30.6
2022-08-03T11:22:34.091Z,30.67
2022-08-03T11:24:09.332Z,30.77
2022-08-03T11:24:34.610Z,30.71
2022-08-03T11:25:59.636Z,30.67
2022-08-03T11:26:34.361Z,30.82
2022-08-03T11:27:34.622Z,30.78
2022-08-03T11:28:36.725Z,30.82
2022-08-03T11:29:34.472Z,30.84
2022-08-03T11:30:34.392Z,30.89
2022-08-03T11:32:04.390Z,30.82
2022-08-03T11:32:34.142Z,30.81
2022-08-03T11:33:34.645Z,30.88
2022-08-03T11:34:34.655Z,30.88
2022-08-03T11:35:34.657Z,30.78
2022-08-03T11:36:37.755Z,30.75
2022-08-03T11:37:37.869Z,30.84
2022-08-03T11:38:34.415Z,30.75
2022-08-03T11:39:34.419Z,30.69
2022-08-03T11:40:34.421Z,30.82
2022-08-03T11:41:45.398Z,30.73
2022-08-03T11:42:34.685Z,30.69
2022-08-03T11:43:36.261Z,30.69
2022-08-03T11:44:34.439Z,30.62
2022-08-03T11:45:34.698Z,30.56
2022-08-03T11:46:35.001Z,30.47
2022-08-03T11:47:34.704Z,30.45
2022-08-03T11:48:35.035Z,30.56
2022-08-03T11:49:34.582Z,30.49
2022-08-03T11:50:34.722Z,30.56
2022-08-03T11:51:34.463Z,30.59
2022-08-03T11:52:34.218Z,30.56
2022-08-03T11:53:41.683Z,30.57
2022-08-03T11:54:34.883Z,30.57
2022-08-03T11:55:35.265Z,30.6
2022-08-03T11:56:38.172Z,30.57
2022-08-03T11:59:25.107Z,30.57
2022-08-03T11:59:35.631Z,30.62
2022-08-03T12:00:35.648Z,30.63
2022-08-03T12:01:36.393Z,30.64
2022-08-03T12:02:36.157Z,30.67
2022-08-03T12:03:36.458Z,30.67
2022-08-03T12:04:35.916Z,30.6
2022-08-03T12:05:37.296Z,30.6
2022-08-03T12:06:36.177Z,30.62
2022-08-03T12:08:09.467Z,30.66
2022-08-03T12:08:35.936Z,30.62
2022-08-03T12:09:36.187Z,30.62
2022-08-03T12:10:35.933Z,30.64
2022-08-03T12:11:35.687Z,30.69
2022-08-03T12:12:36.191Z,30.66
2022-08-03T12:14:55.111Z,30.63
2022-08-03T12:15:05.632Z,30.69
2022-08-03T12:16:06.103Z,30.75
2022-08-03T12:17:05.389Z,30.82
2022-08-03T12:18:05.649Z,30.69
2022-08-03T12:19:05.656Z,30.81
2022-08-03T12:20:05.915Z,30.77
2022-08-03T12:21:05.689Z,30.81
2022-08-03T12:22:05.667Z,30.77
2022-08-03T12:23:06.306Z,30.7
2022-08-03T12:24:05.935Z,30.75
2022-08-03T12:25:05.682Z,30.78
2022-08-03T12:26:07.192Z,30.69
2022-08-03T12:27:05.692Z,30.7
2022-08-03T12:28:38.968Z,30.69
2022-08-03T12:29:05.698Z,30.69
2022-08-03T12:30:05.954Z,30.66
2022-08-03T12:31:05.719Z,30.64
2022-08-03T12:32:05.704Z,30.64
2022-08-03T12:33:05.714Z,30.62
2022-08-03T12:34:05.720Z,30.67
2022-08-03T12:35:07.052Z,30.75
2022-08-03T12:36:06.064Z,30.75
2022-08-03T12:37:25.862Z,30.75
2022-08-03T12:38:05.735Z,30.73
2022-08-03T12:39:06.004Z,30.82
2022-08-03T12:40:16.445Z,30.86
2022-08-03T12:41:06.015Z,30.81
2022-08-03T12:42:05.749Z,30.73
2022-08-03T12:43:05.758Z,30.71
2022-08-03T12:44:06.031Z,30.81
2022-08-03T12:45:06.019Z,30.81
2022-08-03T12:46:05.765Z,30.66
2022-08-03T12:47:05.521Z,30.67
2022-08-03T12:48:05.798Z,30.73
2022-08-03T12:49:06.382Z,30.67
2022-08-03T12:50:06.078Z,30.63
2022-08-03T12:51:06.051Z,30.66
2022-08-03T12:52:11.434Z,30.62
2022-08-03T12:53:07.825Z,30.63
2022-08-03T12:54:06.076Z,30.63
2022-08-03T12:55:06.070Z,30.57
2022-08-03T12:56:10.562Z,30.62
2022-08-03T12:57:07.088Z,30.62
2022-08-03T12:58:06.821Z,30.75
2022-08-03T12:59:07.081Z,30.71
2022-08-03T13:00:29.276Z,30.64
2022-08-03T13:01:16.358Z,30.64
2022-08-03T13:02:11.972Z,30.56
2022-08-03T13:03:45.934Z,30.45
2022-08-03T13:04:07.392Z,30.57
2022-08-03T13:05:06.586Z,30.45
2022-08-03T13:06:06.849Z,30.44
2022-08-03T13:07:12.788Z,30.47
2022-08-03T13:08:07.110Z,30.44
2022-08-03T13:09:06.872Z,30.44
2022-08-03T13:10:12.667Z,30.52
2022-08-03T13:11:06.869Z,30.62
2022-08-03T13:12:10.429Z,30.6
2022-08-03T13:13:07.143Z,30.62
2022-08-03T13:14:07.134Z,30.56
2022-08-03T13:15:06.889Z,30.54
2022-08-03T13:16:06.891Z,30.57
2022-08-03T13:17:07.150Z,30.52